createdAt,value
2023-05-06T00:00:25.515Z,19.63
2023-05-06T00:02:51.991Z,20.88
2023-05-06T00:05:18.543Z,19.95
2023-05-06T00:07:46.244Z,19.27
2023-05-06T00:12:39.080Z,17.52
2023-05-06T00:15:05.770Z,14.45
2023-05-06T00:17:32.121Z,20.10
2023-05-06T00:19:58.694Z,17.58
2023-05-06T00:22:25.309Z,19.40
2023-05-06T00:24:51.668Z,18.50
2023-05-06T00:27:17.996Z,14.43
2023-05-06T00:29:44.366Z,18.42
2023-05-06T00:32:11.235Z,15.00
2023-05-06T00:34:37.846Z,20.88
2023-05-06T00:37:04.300Z,19.55
2023-05-06T00:39:30.608Z,20.65
2023-05-06T00:42:02.173Z,18.60
2023-05-06T00:44:29.156Z,23.23
2023-05-06T00:46:56.335Z,23.20
2023-05-06T00:49:23.451Z,19.65
2023-05-06T00:51:51.814Z,24.17
2023-05-06T00:54:18.505Z,20.20
2023-05-06T00:56:44.888Z,20.77
2023-05-06T00:59:11.356Z,19.15
2023-05-06T01:01:37.883Z,18.42
2023-05-06T01:04:04.797Z,17.73
2023-05-06T01:06:50.083Z,17.67
2023-05-06T01:09:19.961Z,18.30
2023-05-06T01:11:50.750Z,14.95
2023-05-06T01:14:20.673Z,15.35
2023-05-06T01:16:48.144Z,18.77
2023-05-06T01:19:28.598Z,18.70
2023-05-06T01:21:56.225Z,17.60
2023-05-06T01:24:33.959Z,17.13
2023-05-06T01:27:00.287Z,18.00
2023-05-06T01:29:26.678Z,11.48
2023-05-06T01:31:54.788Z,17.33
2023-05-06T01:34:25.377Z,21.15
2023-05-06T01:37:04.241Z,14.80
2023-05-06T01:39:31.856Z,18.48
2023-05-06T01:42:00.362Z,14.77
2023-05-06T01:44:27.716Z,21.80
2023-05-06T01:46:54.970Z,24.25
2023-05-06T01:49:22.180Z,23.77
2023-05-06T01:51:49.248Z,21.85
2023-05-06T01:54:15.789Z,17.80
2023-05-06T01:56:42.149Z,23.33
2023-05-06T01:59:08.558Z,17.92
2023-05-06T02:01:34.910Z,21.70
2023-05-06T02:04:01.535Z,18.25
2023-05-06T02:06:28.076Z,21.67
2023-05-06T02:08:54.422Z,18.17
2023-05-06T02:11:20.776Z,18.65
2023-05-06T02:13:47.204Z,18.10
2023-05-06T02:16:13.630Z,17.25
2023-05-06T02:18:39.982Z,20.40
2023-05-06T02:21:06.334Z,19.05
2023-05-06T02:23:32.700Z,20.52
2023-05-06T02:25:59.174Z,17.40
2023-05-06T02:28:25.812Z,18.58
2023-05-06T02:30:56.156Z,18.33
2023-05-06T02:33:22.777Z,17.75
2023-05-06T02:35:49.317Z,16.92
2023-05-06T02:38:15.766Z,17.00
2023-05-06T02:40:42.108Z,17.73
2023-05-06T02:43:08.457Z,12.98
2023-05-06T02:45:34.836Z,18.52
2023-05-06T02:48:01.229Z,21.85
2023-05-06T02:50:27.590Z,21.13
2023-05-06T02:52:53.928Z,20.02
2023-05-06T02:55:20.444Z,15.18
2023-05-06T02:57:46.838Z,16.73
2023-05-06T03:00:15.307Z,17.50
2023-05-06T03:02:41.728Z,18.75
2023-05-06T03:05:08.571Z,14.68
2023-05-06T03:07:35.883Z,18.65
2023-05-06T03:10:02.329Z,15.93
2023-05-06T03:12:28.710Z,17.65
2023-05-06T03:14:55.108Z,18.38
2023-05-06T03:17:21.595Z,17.90
2023-05-06T03:19:49.597Z,17.60
2023-05-06T03:22:16.014Z,17.05
2023-05-06T03:24:42.354Z,18.27
2023-05-06T03:27:08.739Z,21.55
2023-05-06T03:29:35.112Z,20.52
2023-05-06T03:32:04.817Z,19.58
2023-05-06T03:34:31.186Z,23.10
2023-05-06T03:36:57.755Z,18.13
2023-05-06T03:39:24.625Z,22.90
2023-05-06T03:41:51.059Z,19.80
2023-05-06T03:44:17.423Z,27.65
2023-05-06T03:46:43.939Z,22.23
2023-05-06T03:49:10.315Z,24.98
2023-05-06T03:51:36.715Z,19.33
2023-05-06T03:54:03.510Z,20.38
2023-05-06T03:56:29.856Z,23.13
2023-05-06T03:58:56.217Z,21.45
2023-05-06T04:01:22.616Z,20.98
2023-05-06T04:03:49.078Z,26.77
2023-05-06T04:06:15.537Z,27.63
2023-05-06T04:08:41.936Z,26.75
2023-05-06T04:11:08.697Z,32.47
2023-05-06T04:13:35.232Z,25.27
2023-05-06T04:16:01.705Z,31.10
2023-05-06T04:18:28.203Z,26.55
2023-05-06T04:20:54.627Z,26.10
2023-05-06T04:23:21.625Z,22.75
2023-05-06T04:25:50.965Z,22.83
2023-05-06T04:28:17.734Z,22.63
2023-05-06T04:30:44.807Z,19.95
2023-05-06T04:33:11.646Z,20.77
2023-05-06T04:35:38.205Z,23.10
2023-05-06T04:38:04.585Z,19.15
2023-05-06T04:40:30.934Z,15.85
2023-05-06T04:42:57.245Z,15.65
2023-05-06T04:45:24.365Z,15.77
2023-05-06T04:47:51.015Z,18.50
2023-05-06T04:50:17.412Z,12.52
2023-05-06T04:52:44.046Z,13.23
2023-05-06T04:55:11.348Z,16.05
2023-05-06T04:57:37.996Z,16.02
2023-05-06T05:00:04.533Z,14.35
2023-05-06T05:02:31.254Z,16.42
2023-05-06T05:04:57.630Z,16.92
2023-05-06T05:07:23.956Z,15.02
2023-05-06T05:09:50.341Z,15.65
2023-05-06T05:12:16.721Z,16.02
2023-05-06T05:14:43.056Z,16.50
2023-05-06T05:17:09.546Z,17.45
2023-05-06T05:19:36.058Z,16.73
2023-05-06T05:22:02.440Z,17.42
2023-05-06T05:24:28.779Z,16.75
2023-05-06T05:26:55.099Z,19.27
2023-05-06T05:29:21.446Z,19.30
2023-05-06T05:31:47.818Z,21.67
2023-05-06T05:34:14.195Z,17.88
2023-05-06T05:36:40.717Z,19.45
2023-05-06T05:39:07.124Z,16.35
2023-05-06T05:41:33.436Z,20.98
2023-05-06T05:43:59.774Z,10.57
2023-05-06T05:46:26.225Z,10.57
2023-05-06T05:48:52.675Z,11.13
2023-05-06T05:51:18.989Z,11.80
2023-05-06T05:53:45.372Z,14.77
2023-05-06T05:56:11.855Z,12.82
2023-05-06T05:58:38.587Z,13.13
2023-05-06T06:01:05.275Z,13.65
2023-05-06T06:03:31.769Z,15.25
2023-05-06T06:05:58.255Z,11.77
2023-05-06T06:08:24.692Z,15.23
2023-05-06T06:10:51.145Z,11.93
2023-05-06T06:13:17.549Z,13.55
2023-05-06T06:15:43.965Z,13.15
2023-05-06T06:18:10.364Z,12.32
2023-05-06T06:20:36.814Z,12.40
2023-05-06T06:23:03.375Z,13.88
2023-05-06T06:25:29.718Z,12.55
2023-05-06T06:27:56.620Z,10.40
2023-05-06T06:30:23.043Z,10.57
2023-05-06T06:32:50.299Z,11.77
2023-05-06T06:35:17.016Z,11.32
2023-05-06T06:37:43.427Z,13.75
2023-05-06T06:40:10.667Z,12.52
2023-05-06T06:42:37.881Z,14.38
2023-05-06T06:45:04.604Z,11.95
2023-05-06T06:47:31.037Z,11.45
2023-05-06T06:49:57.369Z,15.00
2023-05-06T06:52:23.740Z,17.30
2023-05-06T06:54:50.287Z,15.68
2023-05-06T06:57:16.678Z,20.77
2023-05-06T06:59:43.064Z,33.38
2023-05-06T07:02:09.484Z,13.63
2023-05-06T07:04:36.006Z,21.63
2023-05-06T07:07:02.355Z,21.95
2023-05-06T07:09:28.703Z,12.40
2023-05-06T07:11:55.036Z,19.48
2023-05-06T07:14:21.375Z,17.30
2023-05-06T07:16:48.763Z,23.73
2023-05-06T07:19:17.141Z,26.42
2023-05-06T07:21:43.526Z,18.25
2023-05-06T07:24:09.954Z,12.27
2023-05-06T07:26:36.878Z,13.73
2023-05-06T07:29:04.643Z,17.30
2023-05-06T07:31:33.889Z,9.38
2023-05-06T07:34:00.359Z,18.42
2023-05-06T07:36:27.148Z,18.23
2023-05-06T07:38:53.623Z,8.90
2023-05-06T07:41:20.090Z,10.52
2023-05-06T07:43:46.499Z,16.92
2023-05-06T07:46:12.891Z,14.60
2023-05-06T07:48:39.296Z,19.85
2023-05-06T07:51:05.914Z,14.30
2023-05-06T07:53:32.466Z,8.48
2023-05-06T07:56:02.181Z,9.73
2023-05-06T07:58:29.092Z,12.05
2023-05-06T08:00:55.504Z,10.80
2023-05-06T08:03:21.993Z,7.75
2023-05-06T08:05:50.211Z,8.73
2023-05-06T08:08:16.709Z,5.30
2023-05-06T08:10:45.901Z,7.93
2023-05-06T08:13:12.300Z,6.18
2023-05-06T08:15:38.964Z,10.50
2023-05-06T08:18:21.047Z,5.00
2023-05-06T08:20:49.062Z,2.80
2023-05-06T08:23:15.491Z,4.28
2023-05-06T08:25:41.962Z,6.38
2023-05-06T08:28:08.293Z,3.70
2023-05-06T08:30:34.672Z,4.00
2023-05-06T08:33:01.914Z,14.82
2023-05-06T08:35:28.295Z,2.58
2023-05-06T08:37:54.611Z,20.10
2023-05-06T08:40:22.066Z,7.07
2023-05-06T08:42:49.307Z,8.27
2023-05-06T08:45:19.132Z,12.43
2023-05-06T08:47:46.940Z,23.50
2023-05-06T08:52:39.742Z,22.33
2023-05-06T08:55:07.320Z,26.10
2023-05-06T08:57:34.309Z,8.50
2023-05-06T09:00:01.052Z,8.25
2023-05-06T09:02:27.865Z,4.88
2023-05-06T09:04:54.930Z,16.67
2023-05-06T09:07:21.919Z,2.30
2023-05-06T09:09:48.369Z,1.30
2023-05-06T09:12:15.057Z,0.95
2023-05-06T09:14:42.111Z,1.08
2023-05-06T09:17:28.417Z,4.95
2023-05-06T09:19:56.937Z,0.57
2023-05-06T09:22:24.246Z,12.73
2023-05-06T09:24:57.109Z,10.07
2023-05-06T09:27:24.703Z,1.77
2023-05-06T09:30:05.214Z,3.85
2023-05-06T09:32:31.856Z,5.30
2023-05-06T09:34:58.347Z,1.15
2023-05-06T09:37:26.355Z,0.73
2023-05-06T09:39:56.993Z,3.10
2023-05-06T09:42:24.293Z,0.52
2023-05-06T09:44:51.753Z,2.13
2023-05-06T09:47:18.563Z,0.35
2023-05-06T09:49:45.354Z,0.55
2023-05-06T09:52:11.998Z,1.50
2023-05-06T09:54:38.861Z,1.75
2023-05-06T09:57:05.757Z,0.37
2023-05-06T09:59:32.650Z,1.30
2023-05-06T10:01:59.292Z,1.70
2023-05-06T10:04:26.596Z,0.40
2023-05-06T10:06:56.426Z,2.80
2023-05-06T10:09:24.088Z,1.25
2023-05-06T10:14:17.628Z,1.07
2023-05-06T10:16:44.514Z,3.53
2023-05-06T10:19:11.887Z,2.35
2023-05-06T10:21:39.905Z,0.90
2023-05-06T10:24:07.542Z,1.75
2023-05-06T10:29:01.732Z,0.20
2023-05-06T10:33:54.725Z,0.22
2023-05-06T10:36:25.937Z,0.55
2023-05-06T10:38:56.856Z,0.73
2023-05-06T10:41:24.103Z,3.55
2023-05-06T10:43:56.722Z,6.40
2023-05-06T10:46:24.054Z,2.25
2023-05-06T10:49:10.891Z,1.17
2023-05-06T10:51:37.915Z,0.20
2023-05-06T10:54:11.104Z,0.10
2023-05-06T10:56:38.659Z,3.20
2023-05-06T11:01:35.846Z,1.10
2023-05-06T11:04:09.662Z,0.85
2023-05-06T11:06:41.720Z,0.43
2023-05-06T11:09:21.626Z,0.57
2023-05-06T11:12:00.976Z,0.75
2023-05-06T11:14:28.239Z,1.50
2023-05-06T11:16:56.882Z,2.67
2023-05-06T11:19:23.727Z,0.45
2023-05-06T11:21:50.816Z,0.40
2023-05-06T11:24:24.623Z,1.52
2023-05-06T11:26:51.274Z,0.20
2023-05-06T11:29:18.339Z,0.60
2023-05-06T11:31:45.240Z,1.17
2023-05-06T11:34:12.849Z,1.50
2023-05-06T11:36:46.626Z,0.43
2023-05-06T11:39:13.084Z,0.30
2023-05-06T11:41:40.839Z,0.75
2023-05-06T11:46:35.383Z,0.68
2023-05-06T11:49:01.893Z,2.40
2023-05-06T11:51:28.348Z,2.58
2023-05-06T11:54:04.982Z,1.52
2023-05-06T11:56:31.428Z,0.73
2023-05-06T11:58:57.789Z,1.48
2023-05-06T12:01:24.271Z,2.47
2023-05-06T12:03:54.831Z,0.70
2023-05-06T12:06:32.442Z,0.70
2023-05-06T12:11:25.188Z,3.55
2023-05-06T12:13:51.587Z,1.90
2023-05-06T12:16:18.288Z,2.83
2023-05-06T12:18:44.857Z,4.57
2023-05-06T12:21:11.375Z,2.90
2023-05-06T12:23:49.985Z,3.17
2023-05-06T12:26:16.360Z,3.38
2023-05-06T12:28:43.657Z,3.53
2023-05-06T12:31:20.094Z,4.40
2023-05-06T12:33:48.826Z,3.97
2023-05-06T12:36:15.326Z,4.03
2023-05-06T12:38:52.533Z,5.70
2023-05-06T12:41:22.075Z,4.72
2023-05-06T12:43:48.786Z,4.45
2023-05-06T12:46:16.217Z,4.57
2023-05-06T12:49:01.887Z,6.53
2023-05-06T12:51:28.844Z,4.53
2023-05-06T12:53:55.469Z,4.45
2023-05-06T12:56:22.515Z,4.25
2023-05-06T12:58:55.688Z,4.53
2023-05-06T13:01:22.232Z,7.53
2023-05-06T13:03:48.639Z,3.78
2023-05-06T13:06:16.115Z,3.53
2023-05-06T13:08:42.524Z,3.45
2023-05-06T13:11:08.894Z,2.47
2023-05-06T13:13:35.317Z,2.42
2023-05-06T13:16:01.749Z,2.60
2023-05-06T13:18:29.200Z,3.38
2023-05-06T13:20:55.724Z,1.27
2023-05-06T13:23:22.454Z,0.80
2023-05-06T13:26:02.805Z,1.27
2023-05-06T13:28:31.985Z,1.83
2023-05-06T13:30:59.150Z,2.17
2023-05-06T13:33:25.784Z,2.40
2023-05-06T13:35:52.776Z,1.90
2023-05-06T13:38:19.241Z,1.67
2023-05-06T13:40:46.492Z,2.58
2023-05-06T13:43:13.607Z,3.00
2023-05-06T13:45:40.137Z,3.22
2023-05-06T13:48:06.577Z,2.60
2023-05-06T13:50:33.821Z,4.38
2023-05-06T13:53:00.163Z,3.78
2023-05-06T13:55:26.494Z,5.28
2023-05-06T13:57:52.924Z,2.88
2023-05-06T14:00:19.404Z,2.75
2023-05-06T14:02:46.055Z,3.25
2023-05-06T14:05:12.892Z,2.97
2023-05-06T14:07:40.620Z,3.63
2023-05-06T14:10:07.650Z,2.95
2023-05-06T14:12:34.295Z,4.38
2023-05-06T14:15:01.200Z,4.70
2023-05-06T14:17:27.673Z,5.60
2023-05-06T14:19:54.486Z,6.03
2023-05-06T14:22:20.911Z,6.25
2023-05-06T14:24:47.488Z,6.65
2023-05-06T14:27:13.991Z,5.85
2023-05-06T14:29:43.568Z,4.68
2023-05-06T14:32:09.924Z,5.78
2023-05-06T14:34:39.284Z,4.57
2023-05-06T14:37:05.899Z,4.85
2023-05-06T14:39:32.618Z,5.03
2023-05-06T14:41:59.679Z,5.23
2023-05-06T14:44:26.531Z,6.35
2023-05-06T14:46:52.907Z,5.15
2023-05-06T14:49:19.862Z,4.18
2023-05-06T14:51:49.733Z,3.45
2023-05-06T14:54:17.512Z,4.43
2023-05-06T14:56:46.841Z,3.53
2023-05-06T14:59:13.419Z,3.58
2023-05-06T15:01:40.167Z,3.93
2023-05-06T15:04:08.692Z,5.23
2023-05-06T15:06:35.246Z,3.40
2023-05-06T15:09:01.885Z,3.30
2023-05-06T15:11:28.283Z,3.45
2023-05-06T15:13:55.515Z,3.70
2023-05-06T15:16:22.285Z,3.22
2023-05-06T15:18:48.867Z,4.20
2023-05-06T15:21:15.905Z,3.43
2023-05-06T15:23:42.473Z,3.25
2023-05-06T15:26:09.056Z,3.60
2023-05-06T15:28:35.552Z,3.90
2023-05-06T15:31:01.925Z,5.13
2023-05-06T15:33:28.277Z,3.97
2023-05-06T15:35:54.629Z,3.53
2023-05-06T15:38:20.978Z,4.60
2023-05-06T15:40:51.428Z,3.90
2023-05-06T15:43:23.277Z,4.10
2023-05-06T15:45:50.433Z,4.63
2023-05-06T15:48:16.831Z,3.97
2023-05-06T15:50:43.170Z,4.05
2023-05-06T15:53:09.627Z,3.88
2023-05-06T15:55:45.187Z,4.45
2023-05-06T15:58:16.537Z,3.80
2023-05-06T16:00:43.106Z,3.63
2023-05-06T16:03:12.055Z,4.00
2023-05-06T16:05:39.045Z,3.58
2023-05-06T16:08:05.591Z,3.57
2023-05-06T16:10:32.017Z,5.50
2023-05-06T16:12:58.422Z,4.63
2023-05-06T16:15:24.839Z,4.68
2023-05-06T16:17:51.200Z,4.88
2023-05-06T16:20:17.590Z,4.28
2023-05-06T16:22:49.207Z,4.07
2023-05-06T16:25:15.909Z,4.43
2023-05-06T16:27:42.264Z,4.80
2023-05-06T16:30:09.067Z,4.10
2023-05-06T16:32:35.593Z,4.22
2023-05-06T16:35:02.007Z,4.30
2023-05-06T16:37:29.562Z,4.82
2023-05-06T16:39:56.768Z,4.80
2023-05-06T16:42:23.241Z,4.82
2023-05-06T16:44:49.776Z,4.15
2023-05-06T16:47:16.388Z,4.70
2023-05-06T16:49:43.242Z,5.05
2023-05-06T16:52:09.797Z,4.67
2023-05-06T16:54:36.313Z,4.27
2023-05-06T16:57:04.014Z,4.28
2023-05-06T16:59:30.528Z,4.82
2023-05-06T17:01:56.894Z,5.05
2023-05-06T17:04:25.171Z,4.88
2023-05-06T17:06:52.570Z,4.30
2023-05-06T17:09:19.089Z,5.20
2023-05-06T17:11:45.483Z,5.28
2023-05-06T17:14:11.982Z,4.88
2023-05-06T17:16:38.620Z,4.45
2023-05-06T17:19:05.569Z,5.47
2023-05-06T17:21:32.285Z,4.47
2023-05-06T17:23:58.673Z,4.80
2023-05-06T17:26:25.183Z,4.85
2023-05-06T17:28:52.280Z,4.10
2023-05-06T17:31:18.825Z,4.15
2023-05-06T17:33:45.657Z,5.43
2023-05-06T17:36:12.607Z,5.40
2023-05-06T17:38:38.994Z,5.65
2023-05-06T17:41:05.512Z,5.88
2023-05-06T17:43:33.569Z,5.45
2023-05-06T17:46:00.199Z,5.55
2023-05-06T17:48:26.573Z,5.60
2023-05-06T17:50:52.939Z,6.25
2023-05-06T17:53:19.274Z,6.07
2023-05-06T17:55:45.821Z,7.95
2023-05-06T17:58:12.186Z,8.25
2023-05-06T18:00:38.631Z,8.07
2023-05-06T18:03:05.106Z,8.43
2023-05-06T18:05:32.217Z,9.82
2023-05-06T18:07:58.869Z,8.90
2023-05-06T18:10:25.868Z,8.63
2023-05-06T18:12:52.964Z,9.07
2023-05-06T18:15:19.381Z,10.02
2023-05-06T18:17:46.085Z,9.68
2023-05-06T18:20:12.905Z,12.38
2023-05-06T18:22:39.689Z,9.80
2023-05-06T18:25:06.489Z,11.13
2023-05-06T18:27:32.899Z,9.57
2023-05-06T18:29:59.389Z,10.43
2023-05-06T18:32:26.097Z,10.40
2023-05-06T18:34:52.559Z,10.57
2023-05-06T18:37:18.916Z,10.63
2023-05-06T18:39:45.668Z,10.63
2023-05-06T18:42:12.152Z,10.00
2023-05-06T18:44:38.492Z,11.27
2023-05-06T18:47:05.273Z,12.13
2023-05-06T18:49:31.717Z,10.67
2023-05-06T18:51:58.087Z,11.35
2023-05-06T18:54:24.432Z,11.52
2023-05-06T18:56:54.762Z,10.80
2023-05-06T18:59:21.587Z,11.23
2023-05-06T19:01:47.971Z,11.70
2023-05-06T19:04:14.744Z,14.23
2023-05-06T19:06:41.346Z,16.27
2023-05-06T19:09:07.788Z,12.55
2023-05-06T19:11:34.952Z,12.50
2023-05-06T19:14:01.348Z,11.63
2023-05-06T19:16:27.725Z,12.07
2023-05-06T19:18:54.163Z,8.02
2023-05-06T19:21:21.624Z,4.80
2023-05-06T19:23:47.937Z,5.00
2023-05-06T19:26:14.389Z,5.38
2023-05-06T19:28:40.826Z,6.45
2023-05-06T19:31:09.426Z,8.27
2023-05-06T19:33:36.750Z,8.77
2023-05-06T19:36:03.717Z,10.48
2023-05-06T19:38:30.268Z,13.32
2023-05-06T19:40:56.625Z,12.00
2023-05-06T19:43:23.134Z,12.63
2023-05-06T19:45:49.495Z,13.80
2023-05-06T19:48:15.944Z,14.13
2023-05-06T19:50:42.329Z,16.52
2023-05-06T19:53:08.694Z,16.88
2023-05-06T19:55:35.050Z,15.80
2023-05-06T19:58:02.255Z,14.93
2023-05-06T20:00:30.224Z,16.13
2023-05-06T20:02:57.648Z,18.13
2023-05-06T20:05:24.441Z,27.63
2023-05-06T20:07:51.170Z,30.83
2023-05-06T20:10:17.526Z,21.27
2023-05-06T20:12:44.726Z,40.65
2023-05-06T20:15:11.489Z,20.77
2023-05-06T20:17:38.999Z,20.52
2023-05-06T20:20:09.665Z,17.95
2023-05-06T20:22:36.822Z,16.70
2023-05-06T20:25:10.698Z,17.63
2023-05-06T20:27:37.384Z,15.18
2023-05-06T20:30:04.169Z,16.20
2023-05-06T20:32:30.990Z,20.20
2023-05-06T20:34:58.226Z,17.50
2023-05-06T20:37:25.427Z,16.00
2023-05-06T20:39:51.974Z,17.13
2023-05-06T20:42:18.370Z,21.08
2023-05-06T20:44:44.771Z,19.45
2023-05-06T20:47:12.620Z,22.50
2023-05-06T20:49:39.392Z,21.00
2023-05-06T20:52:07.606Z,21.40
2023-05-06T20:54:34.401Z,20.38
2023-05-06T20:57:02.459Z,23.33
2023-05-06T20:59:29.722Z,18.10
2023-05-06T21:01:56.565Z,22.38
2023-05-06T21:04:23.130Z,18.23
2023-05-06T21:06:49.456Z,16.98
2023-05-06T21:09:15.900Z,17.48
2023-05-06T21:11:42.228Z,20.42
2023-05-06T21:14:08.811Z,20.00
2023-05-06T21:16:35.215Z,17.75
2023-05-06T21:19:01.571Z,19.08
2023-05-06T21:21:30.501Z,20.00
2023-05-06T21:23:57.063Z,21.05
2023-05-06T21:26:23.601Z,17.35
2023-05-06T21:28:52.909Z,16.00
2023-05-06T21:31:23.805Z,20.15
2023-05-06T21:33:53.533Z,21.17
2023-05-06T21:36:19.948Z,21.85
2023-05-06T21:38:58.005Z,21.20
2023-05-06T21:41:24.568Z,16.98
2023-05-06T21:43:51.355Z,17.02
2023-05-06T21:46:17.796Z,15.93
2023-05-06T21:48:44.232Z,14.18
2023-05-06T21:51:10.593Z,12.77
2023-05-06T21:53:36.962Z,17.73
2023-05-06T21:56:03.379Z,15.75
2023-05-06T21:58:29.688Z,15.13
2023-05-06T22:00:56.054Z,14.98
2023-05-06T22:03:22.571Z,15.82
2023-05-06T22:05:49.055Z,15.93
2023-05-06T22:08:15.708Z,17.10
2023-05-06T22:10:42.870Z,20.45
2023-05-06T22:13:09.517Z,16.30
2023-05-06T22:15:36.092Z,13.07
2023-05-06T22:18:03.193Z,21.60
2023-05-06T22:20:30.671Z,23.13
2023-05-06T22:22:57.118Z,18.15
2023-05-06T22:25:23.491Z,20.25
2023-05-06T22:27:49.883Z,14.57
2023-05-06T22:30:16.395Z,15.75
2023-05-06T22:32:42.851Z,19.30
2023-05-06T22:35:09.666Z,16.38
2023-05-06T22:37:36.207Z,18.37
2023-05-06T22:40:02.660Z,16.85
2023-05-06T22:42:28.984Z,19.67
2023-05-06T22:44:55.407Z,16.23
2023-05-06T22:47:21.873Z,14.75
2023-05-06T22:49:48.269Z,16.90
2023-05-06T22:52:15.085Z,16.02
2023-05-06T22:54:41.403Z,14.60
2023-05-06T22:57:07.900Z,15.13
2023-05-06T22:59:34.404Z,16.17
2023-05-06T23:02:00.758Z,15.43
2023-05-06T23:04:27.134Z,13.90
2023-05-06T23:06:53.496Z,13.80
2023-05-06T23:09:19.922Z,12.05
2023-05-06T23:11:46.504Z,14.88
2023-05-06T23:14:13.084Z,9.82
2023-05-06T23:16:39.480Z,10.18
2023-05-06T23:19:05.937Z,15.07
2023-05-06T23:21:32.261Z,14.95
2023-05-06T23:23:58.591Z,13.73
2023-05-06T23:26:25.049Z,12.75
2023-05-06T23:28:51.770Z,11.15
2023-05-06T23:31:18.171Z,15.75
2023-05-06T23:33:44.538Z,14.40
2023-05-06T23:36:10.912Z,17.58
2023-05-06T23:38:37.248Z,18.63
2023-05-06T23:41:03.704Z,20.15
2023-05-06T23:43:30.052Z,17.15
2023-05-06T23:45:56.412Z,22.00
2023-05-06T23:48:22.840Z,19.02
2023-05-06T23:50:49.190Z,20.98
2023-05-06T23:53:15.590Z,19.80
2023-05-06T23:55:42.820Z,21.42
2023-05-06T23:58:09.272Z,22.23
